sensor_id;sensor_type;location;lat;lon;timestamp;P1;durP1;ratioP1;P2;durP2;ratioP2
16626;SDS011;8427;52.204;7.202;2023-05-10T06:48:26;40.10;;;37.80;;
16626;SDS011;8427;52.204;7.202;2023-05-10T06:50:54;41.33;;;38.80;;
16626;SDS011;8427;52.204;7.202;2023-05-10T06:53:22;42.57;;;39.83;;
16626;SDS011;8427;52.204;7.202;2023-05-10T06:55:50;37.97;;;36.13;;
16626;SDS011;8427;52.204;7.202;2023-05-10T06:58:18;41.27;;;38.87;;
16626;SDS011;8427;52.204;7.202;2023-05-10T07:00:46;40.47;;;38.13;;
16626;SDS011;8427;52.204;7.202;2023-05-10T07:03:14;40.30;;;38.03;;
16626;SDS011;8427;52.204;7.202;2023-05-10T07:05:43;42.50;;;39.83;;
16626;SDS011;8427;52.204;7.202;2023-05-10T07:08:11;40.77;;;38.47;;
16626;SDS011;8427;52.204;7.202;2023-05-10T07:10:40;44.20;;;41.20;;
16626;SDS011;8427;52.204;7.202;2023-05-10T07:13:08;40.67;;;38.37;;
16626;SDS011;8427;52.204;7.202;2023-05-10T07:15:37;42.57;;;40.00;;
16626;SDS011;8427;52.204;7.202;2023-05-10T07:18:05;41.57;;;39.13;;
16626;SDS011;8427;52.204;7.202;2023-05-10T07:20:33;42.30;;;39.73;;
16626;SDS011;8427;52.204;7.202;2023-05-10T07:23:02;42.30;;;39.63;;
16626;SDS011;8427;52.204;7.202;2023-05-10T07:25:30;42.17;;;39.57;;
16626;SDS011;8427;52.204;7.202;2023-05-10T07:27:58;40.40;;;38.17;;
16626;SDS011;8427;52.204;7.202;2023-05-10T07:30:26;42.20;;;39.67;;
16626;SDS011;8427;52.204;7.202;2023-05-10T07:32:54;42.27;;;39.70;;
16626;SDS011;8427;52.204;7.202;2023-05-10T07:35:22;44.50;;;41.63;;
16626;SDS011;8427;52.204;7.202;2023-05-10T07:37:50;46.17;;;42.87;;
16626;SDS011;8427;52.204;7.202;2023-05-10T07:40:19;45.37;;;42.23;;
16626;SDS011;8427;52.204;7.202;2023-05-10T07:42:47;45.63;;;42.45;;
16626;SDS011;8427;52.204;7.202;2023-05-10T07:45:15;44.95;;;42.05;;
16626;SDS011;8427;52.204;7.202;2023-05-10T07:47:44;43.47;;;40.73;;
16626;SDS011;8427;52.204;7.202;2023-05-10T07:50:12;46.80;;;43.33;;
16626;SDS011;8427;52.204;7.202;2023-05-10T07:52:41;42.77;;;40.10;;
16626;SDS011;8427;52.204;7.202;2023-05-10T07:55:09;46.30;;;42.97;;
16626;SDS011;8427;52.204;7.202;2023-05-10T07:57:38;44.87;;;41.87;;
16626;SDS011;8427;52.204;7.202;2023-05-10T08:00:07;48.37;;;44.50;;
16626;SDS011;8427;52.204;7.202;2023-05-10T08:02:35;46.07;;;42.83;;
16626;SDS011;8427;52.204;7.202;2023-05-10T08:05:04;44.93;;;41.83;;
16626;SDS011;8427;52.204;7.202;2023-05-10T08:07:32;44.77;;;41.77;;
16626;SDS011;8427;52.204;7.202;2023-05-10T08:10:00;46.10;;;42.83;;
16626;SDS011;8427;52.204;7.202;2023-05-10T08:12:28;44.17;;;41.27;;
16626;SDS011;8427;52.204;7.202;2023-05-10T08:14:57;47.75;;;44.33;;
16626;SDS011;8427;52.204;7.202;2023-05-10T08:17:26;46.80;;;43.50;;
16626;SDS011;8427;52.204;7.202;2023-05-10T08:19:54;48.50;;;44.80;;
16626;SDS011;8427;52.204;7.202;2023-05-10T08:22:21;48.00;;;44.40;;
16626;SDS011;8427;52.204;7.202;2023-05-10T08:24:49;48.28;;;44.67;;
16626;SDS011;8427;52.204;7.202;2023-05-10T08:27:17;49.83;;;45.85;;
16626;SDS011;8427;52.204;7.202;2023-05-10T08:29:45;46.97;;;43.67;;
16626;SDS011;8427;52.204;7.202;2023-05-10T08:32:17;47.05;;;43.75;;
16626;SDS011;8427;52.204;7.202;2023-05-10T08:34:45;48.20;;;44.50;;
16626;SDS011;8427;52.204;7.202;2023-05-10T08:37:13;52.08;;;47.55;;
16626;SDS011;8427;52.204;7.202;2023-05-10T08:39:41;47.28;;;43.88;;
16626;SDS011;8427;52.204;7.202;2023-05-10T08:42:09;49.53;;;45.55;;
16626;SDS011;8427;52.204;7.202;2023-05-10T08:44:37;49.45;;;45.55;;
16626;SDS011;8427;52.204;7.202;2023-05-10T08:47:06;49.55;;;45.45;;
16626;SDS011;8427;52.204;7.202;2023-05-10T08:49:35;46.75;;;43.45;;
16626;SDS011;8427;52.204;7.202;2023-05-10T08:52:04;46.40;;;43.08;;
16626;SDS011;8427;52.204;7.202;2023-05-10T08:54:34;47.27;;;43.63;;
16626;SDS011;8427;52.204;7.202;2023-05-10T08:57:02;46.53;;;43.23;;
16626;SDS011;8427;52.204;7.202;2023-05-10T08:59:31;48.63;;;44.95;;
16626;SDS011;8427;52.204;7.202;2023-05-10T09:01:59;48.30;;;44.70;;
16626;SDS011;8427;52.204;7.202;2023-05-10T09:04:28;50.15;;;46.13;;
16626;SDS011;8427;52.204;7.202;2023-05-10T09:06:59;47.20;;;43.70;;
16626;SDS011;8427;52.204;7.202;2023-05-10T09:09:27;48.28;;;44.58;;
16626;SDS011;8427;52.204;7.202;2023-05-10T09:11:56;47.72;;;44.22;;
16626;SDS011;8427;52.204;7.202;2023-05-10T09:14:24;47.60;;;44.10;;
16626;SDS011;8427;52.204;7.202;2023-05-10T09:16:53;55.90;;;50.00;;
16626;SDS011;8427;52.204;7.202;2023-05-10T09:19:22;49.30;;;45.30;;
16626;SDS011;8427;52.204;7.202;2023-05-10T09:21:50;47.90;;;44.22;;
16626;SDS011;8427;52.204;7.202;2023-05-10T09:24:19;50.13;;;45.90;;
16626;SDS011;8427;52.204;7.202;2023-05-10T09:26:52;49.85;;;45.67;;
16626;SDS011;8427;52.204;7.202;2023-05-10T09:29:20;50.20;;;46.00;;
16626;SDS011;8427;52.204;7.202;2023-05-10T09:31:49;48.58;;;44.78;;
16626;SDS011;8427;52.204;7.202;2023-05-10T09:34:20;50.65;;;46.35;;
16626;SDS011;8427;52.204;7.202;2023-05-10T09:36:56;46.30;;;43.10;;
16626;SDS011;8427;52.204;7.202;2023-05-10T09:39:31;48.10;;;44.50;;
16626;SDS011;8427;52.204;7.202;2023-05-10T09:42:01;47.17;;;43.78;;
16626;SDS011;8427;52.204;7.202;2023-05-10T09:44:31;48.60;;;44.80;;
16626;SDS011;8427;52.204;7.202;2023-05-10T09:46:59;52.93;;;47.53;;
16626;SDS011;8427;52.204;7.202;2023-05-10T09:49:28;47.80;;;44.20;;
16626;SDS011;8427;52.204;7.202;2023-05-10T09:52:02;48.85;;;45.05;;
16626;SDS011;8427;52.204;7.202;2023-05-10T09:54:33;50.67;;;46.47;;
16626;SDS011;8427;52.204;7.202;2023-05-10T09:57:02;48.30;;;44.60;;
16626;SDS011;8427;52.204;7.202;2023-05-10T09:59:32;48.35;;;44.55;;
16626;SDS011;8427;52.204;7.202;2023-05-10T10:02:02;49.00;;;45.10;;
16626;SDS011;8427;52.204;7.202;2023-05-10T10:04:30;49.92;;;45.80;;
16626;SDS011;8427;52.204;7.202;2023-05-10T10:06:59;53.08;;;48.15;;
16626;SDS011;8427;52.204;7.202;2023-05-10T10:09:28;49.13;;;44.93;;
16626;SDS011;8427;52.204;7.202;2023-05-10T10:11:58;48.93;;;44.77;;
16626;SDS011;8427;52.204;7.202;2023-05-10T10:14:26;51.00;;;46.50;;
16626;SDS011;8427;52.204;7.202;2023-05-10T10:16:54;78.40;;;56.10;;
16626;SDS011;8427;52.204;7.202;2023-05-10T10:19:33;49.80;;;45.60;;
16626;SDS011;8427;52.204;7.202;2023-05-10T10:22:03;50.60;;;46.10;;
16626;SDS011;8427;52.204;7.202;2023-05-10T10:24:31;50.55;;;46.15;;
16626;SDS011;8427;52.204;7.202;2023-05-10T10:27:02;51.30;;;46.50;;
16626;SDS011;8427;52.204;7.202;2023-05-10T10:29:39;47.73;;;43.80;;
16626;SDS011;8427;52.204;7.202;2023-05-10T10:32:32;49.10;;;44.73;;
16626;SDS011;8427;52.204;7.202;2023-05-10T10:35:09;47.73;;;43.67;;
16626;SDS011;8427;52.204;7.202;2023-05-10T10:37:41;49.47;;;45.03;;
16626;SDS011;8427;52.204;7.202;2023-05-10T10:46:10;52.13;;;46.73;;
16626;SDS011;8427;52.204;7.202;2023-05-10T10:48:41;50.00;;;45.23;;
16626;SDS011;8427;52.204;7.202;2023-05-10T10:51:15;50.77;;;45.77;;
16626;SDS011;8427;52.204;7.202;2023-05-10T10:53:43;50.67;;;45.60;;
16626;SDS011;8427;52.204;7.202;2023-05-10T10:56:11;54.10;;;47.77;;
16626;SDS011;8427;52.204;7.202;2023-05-10T10:58:48;53.83;;;47.60;;
16626;SDS011;8427;52.204;7.202;2023-05-10T11:01:17;54.10;;;47.30;;
16626;SDS011;8427;52.204;7.202;2023-05-10T11:06:44;72.80;;;51.27;;
16626;SDS011;8427;52.204;7.202;2023-05-10T11:09:12;51.27;;;45.93;;
16626;SDS011;8427;52.204;7.202;2023-05-10T11:11:48;50.20;;;45.03;;
16626;SDS011;8427;52.204;7.202;2023-05-10T11:14:20;49.60;;;44.47;;
16626;SDS011;8427;52.204;7.202;2023-05-10T11:16:49;50.73;;;45.37;;
16626;SDS011;8427;52.204;7.202;2023-05-10T11:19:18;49.60;;;44.63;;
16626;SDS011;8427;52.204;7.202;2023-05-10T11:21:46;49.20;;;44.27;;
16626;SDS011;8427;52.204;7.202;2023-05-10T11:24:16;48.83;;;44.10;;
16626;SDS011;8427;52.204;7.202;2023-05-10T11:26:45;51.00;;;45.53;;
16626;SDS011;8427;52.204;7.202;2023-05-10T11:29:16;48.50;;;44.00;;
16626;SDS011;8427;52.204;7.202;2023-05-10T11:31:46;49.63;;;44.73;;
16626;SDS011;8427;52.204;7.202;2023-05-10T11:34:24;50.03;;;45.13;;
16626;SDS011;8427;52.204;7.202;2023-05-10T11:36:54;69.07;;;50.53;;
16626;SDS011;8427;52.204;7.202;2023-05-10T11:39:25;49.97;;;45.13;;
16626;SDS011;8427;52.204;7.202;2023-05-10T11:41:54;50.67;;;45.33;;
16626;SDS011;8427;52.204;7.202;2023-05-10T11:44:22;50.77;;;45.40;;
16626;SDS011;8427;52.204;7.202;2023-05-10T11:46:52;73.70;;;50.37;;
16626;SDS011;8427;52.204;7.202;2023-05-10T11:49:20;51.27;;;45.67;;
16626;SDS011;8427;52.204;7.202;2023-05-10T11:51:50;49.77;;;44.77;;
16626;SDS011;8427;52.204;7.202;2023-05-10T11:54:18;49.93;;;44.83;;
16626;SDS011;8427;52.204;7.202;2023-05-10T11:56:46;51.13;;;45.73;;
16626;SDS011;8427;52.204;7.202;2023-05-10T11:59:14;50.70;;;45.27;;
16626;SDS011;8427;52.204;7.202;2023-05-10T12:01:42;48.57;;;44.03;;
16626;SDS011;8427;52.204;7.202;2023-05-10T12:04:12;49.87;;;44.87;;
16626;SDS011;8427;52.204;7.202;2023-05-10T12:06:40;50.33;;;45.13;;
16626;SDS011;8427;52.204;7.202;2023-05-10T12:09:08;50.50;;;45.33;;
16626;SDS011;8427;52.204;7.202;2023-05-10T12:11:37;49.17;;;44.30;;
16626;SDS011;8427;52.204;7.202;2023-05-10T12:14:09;52.40;;;45.90;;
16626;SDS011;8427;52.204;7.202;2023-05-10T12:16:37;50.80;;;45.40;;
16626;SDS011;8427;52.204;7.202;2023-05-10T12:19:05;50.80;;;45.27;;
16626;SDS011;8427;52.204;7.202;2023-05-10T12:21:35;50.33;;;45.07;;
16626;SDS011;8427;52.204;7.202;2023-05-10T12:24:05;49.77;;;44.70;;
16626;SDS011;8427;52.204;7.202;2023-05-10T12:26:33;48.97;;;44.27;;
16626;SDS011;8427;52.204;7.202;2023-05-10T12:29:12;48.67;;;44.07;;
16626;SDS011;8427;52.204;7.202;2023-05-10T12:31:51;48.93;;;44.03;;
16626;SDS011;8427;52.204;7.202;2023-05-10T12:34:30;47.50;;;43.30;;
16626;SDS011;8427;52.204;7.202;2023-05-10T12:37:00;54.90;;;47.13;;
16626;SDS011;8427;52.204;7.202;2023-05-10T12:39:38;47.47;;;43.20;;
16626;SDS011;8427;52.204;7.202;2023-05-10T12:42:06;47.70;;;43.60;;
16626;SDS011;8427;52.204;7.202;2023-05-10T12:44:34;47.33;;;43.33;;
16626;SDS011;8427;52.204;7.202;2023-05-10T12:47:02;49.60;;;45.13;;
16626;SDS011;8427;52.204;7.202;2023-05-10T12:49:31;50.10;;;45.60;;
16626;SDS011;8427;52.204;7.202;2023-05-10T12:52:01;49.30;;;44.90;;
16626;SDS011;8427;52.204;7.202;2023-05-10T12:54:29;48.37;;;44.37;;
16626;SDS011;8427;52.204;7.202;2023-05-10T12:56:57;53.30;;;48.10;;
16626;SDS011;8427;52.204;7.202;2023-05-10T12:59:25;48.73;;;44.67;;
16626;SDS011;8427;52.204;7.202;2023-05-10T13:01:53;49.73;;;45.27;;
16626;SDS011;8427;52.204;7.202;2023-05-10T13:04:21;49.37;;;45.03;;
16626;SDS011;8427;52.204;7.202;2023-05-10T13:06:49;51.60;;;46.70;;
16626;SDS011;8427;52.204;7.202;2023-05-10T13:09:19;49.23;;;44.73;;
16626;SDS011;8427;52.204;7.202;2023-05-10T13:11:47;49.13;;;44.63;;
16626;SDS011;8427;52.204;7.202;2023-05-10T13:14:15;47.63;;;43.47;;
16626;SDS011;8427;52.204;7.202;2023-05-10T13:16:45;49.60;;;44.90;;
16626;SDS011;8427;52.204;7.202;2023-05-10T13:19:13;49.30;;;44.67;;
16626;SDS011;8427;52.204;7.202;2023-05-10T13:21:41;50.37;;;45.33;;
16626;SDS011;8427;52.204;7.202;2023-05-10T13:24:10;50.35;;;45.53;;
16626;SDS011;8427;52.204;7.202;2023-05-10T13:26:41;52.40;;;47.08;;
16626;SDS011;8427;52.204;7.202;2023-05-10T13:29:09;51.77;;;46.70;;
16626;SDS011;8427;52.204;7.202;2023-05-10T13:34:05;49.70;;;45.20;;
16626;SDS011;8427;52.204;7.202;2023-05-10T13:36:33;48.73;;;44.33;;
16626;SDS011;8427;52.204;7.202;2023-05-10T13:39:01;50.00;;;45.20;;
16626;SDS011;8427;52.204;7.202;2023-05-10T13:41:31;51.45;;;46.25;;
16626;SDS011;8427;52.204;7.202;2023-05-10T13:44:00;48.60;;;44.20;;
16626;SDS011;8427;52.204;7.202;2023-05-10T13:46:28;49.87;;;44.73;;
16626;SDS011;8427;52.204;7.202;2023-05-10T13:48:57;50.20;;;45.00;;
16626;SDS011;8427;52.204;7.202;2023-05-10T13:51:25;49.60;;;44.57;;
16626;SDS011;8427;52.204;7.202;2023-05-10T13:53:53;49.20;;;44.33;;
16626;SDS011;8427;52.204;7.202;2023-05-10T13:56:22;48.80;;;44.03;;
16626;SDS011;8427;52.204;7.202;2023-05-10T13:58:50;51.00;;;45.37;;
16626;SDS011;8427;52.204;7.202;2023-05-10T14:01:19;49.37;;;44.53;;
16626;SDS011;8427;52.204;7.202;2023-05-10T14:03:47;50.70;;;45.20;;
16626;SDS011;8427;52.204;7.202;2023-05-10T14:06:18;49.67;;;44.43;;
16626;SDS011;8427;52.204;7.202;2023-05-10T14:08:46;48.57;;;43.80;;
16626;SDS011;8427;52.204;7.202;2023-05-10T14:11:16;46.90;;;42.90;;
16626;SDS011;8427;52.204;7.202;2023-05-10T14:13:45;47.20;;;43.00;;
16626;SDS011;8427;52.204;7.202;2023-05-10T14:16:13;48.37;;;43.87;;
16626;SDS011;8427;52.204;7.202;2023-05-10T14:18:43;48.83;;;44.07;;
16626;SDS011;8427;52.204;7.202;2023-05-10T14:21:12;47.47;;;43.20;;
16626;SDS011;8427;52.204;7.202;2023-05-10T14:23:41;46.60;;;42.60;;
16626;SDS011;8427;52.204;7.202;2023-05-10T14:26:10;47.00;;;42.90;;
16626;SDS011;8427;52.204;7.202;2023-05-10T14:28:38;47.13;;;42.97;;
16626;SDS011;8427;52.204;7.202;2023-05-10T14:31:06;48.83;;;44.07;;
16626;SDS011;8427;52.204;7.202;2023-05-10T14:33:34;49.27;;;44.43;;
16626;SDS011;8427;52.204;7.202;2023-05-10T14:36:04;48.47;;;43.90;;
16626;SDS011;8427;52.204;7.202;2023-05-10T14:38:33;48.63;;;44.17;;
16626;SDS011;8427;52.204;7.202;2023-05-10T14:41:01;48.27;;;43.80;;
16626;SDS011;8427;52.204;7.202;2023-05-10T14:43:29;47.97;;;43.60;;
16626;SDS011;8427;52.204;7.202;2023-05-10T14:45:57;52.40;;;46.13;;
16626;SDS011;8427;52.204;7.202;2023-05-10T14:48:25;47.83;;;43.40;;
16626;SDS011;8427;52.204;7.202;2023-05-10T14:50:53;47.87;;;43.43;;
16626;SDS011;8427;52.204;7.202;2023-05-10T14:53:23;49.43;;;44.47;;
16626;SDS011;8427;52.204;7.202;2023-05-10T14:55:51;48.77;;;44.03;;
16626;SDS011;8427;52.204;7.202;2023-05-10T14:58:19;47.47;;;43.07;;
16626;SDS011;8427;52.204;7.202;2023-05-10T15:00:47;47.40;;;43.23;;
16626;SDS011;8427;52.204;7.202;2023-05-10T15:03:16;47.40;;;43.33;;
16626;SDS011;8427;52.204;7.202;2023-05-10T15:05:44;47.10;;;43.13;;
16626;SDS011;8427;52.204;7.202;2023-05-10T15:08:12;46.17;;;42.47;;
16626;SDS011;8427;52.204;7.202;2023-05-10T15:10:41;46.83;;;42.90;;
16626;SDS011;8427;52.204;7.202;2023-05-10T15:13:09;46.60;;;42.90;;
16626;SDS011;8427;52.204;7.202;2023-05-10T15:15:37;47.13;;;43.27;;
16626;SDS011;8427;52.204;7.202;2023-05-10T15:18:06;48.77;;;44.23;;
16626;SDS011;8427;52.204;7.202;2023-05-10T15:20:34;49.40;;;44.60;;
16626;SDS011;8427;52.204;7.202;2023-05-10T15:23:02;49.30;;;44.50;;
16626;SDS011;8427;52.204;7.202;2023-05-10T15:25:30;49.07;;;44.33;;
16626;SDS011;8427;52.204;7.202;2023-05-10T15:28:05;48.73;;;44.13;;
16626;SDS011;8427;52.204;7.202;2023-05-10T15:30:33;49.50;;;44.63;;
16626;SDS011;8427;52.204;7.202;2023-05-10T15:33:01;48.73;;;44.13;;
16626;SDS011;8427;52.204;7.202;2023-05-10T15:35:29;48.80;;;44.17;;
16626;SDS011;8427;52.204;7.202;2023-05-10T15:37:57;49.10;;;44.43;;
16626;SDS011;8427;52.204;7.202;2023-05-10T15:40:25;48.80;;;44.23;;
16626;SDS011;8427;52.204;7.202;2023-05-10T15:42:53;49.17;;;44.43;;
16626;SDS011;8427;52.204;7.202;2023-05-10T15:45:22;48.43;;;43.97;;
16626;SDS011;8427;52.204;7.202;2023-05-10T15:47:50;49.20;;;44.43;;
16626;SDS011;8427;52.204;7.202;2023-05-10T15:50:18;48.73;;;44.13;;
16626;SDS011;8427;52.204;7.202;2023-05-10T15:52:46;50.07;;;45.03;;
16626;SDS011;8427;52.204;7.202;2023-05-10T15:55:14;58.57;;;48.00;;
16626;SDS011;8427;52.204;7.202;2023-05-10T15:57:43;52.20;;;46.47;;
16626;SDS011;8427;52.204;7.202;2023-05-10T16:00:12;50.37;;;45.20;;
16626;SDS011;8427;52.204;7.202;2023-05-10T16:02:41;49.97;;;44.97;;
16626;SDS011;8427;52.204;7.202;2023-05-10T16:05:10;50.13;;;45.07;;
16626;SDS011;8427;52.204;7.202;2023-05-10T16:07:39;48.73;;;44.17;;
16626;SDS011;8427;52.204;7.202;2023-05-10T16:10:08;49.77;;;44.83;;
16626;SDS011;8427;52.204;7.202;2023-05-10T16:12:37;49.53;;;44.60;;
16626;SDS011;8427;52.204;7.202;2023-05-10T16:15:06;49.87;;;44.87;;
16626;SDS011;8427;52.204;7.202;2023-05-10T16:17:34;48.60;;;44.10;;
16626;SDS011;8427;52.204;7.202;2023-05-10T16:20:05;49.43;;;44.57;;
16626;SDS011;8427;52.204;7.202;2023-05-10T16:22:34;48.80;;;44.10;;
16626;SDS011;8427;52.204;7.202;2023-05-10T16:25:02;49.70;;;44.80;;
16626;SDS011;8427;52.204;7.202;2023-05-10T16:27:30;49.33;;;44.50;;
16626;SDS011;8427;52.204;7.202;2023-05-10T16:29:58;49.30;;;44.47;;
16626;SDS011;8427;52.204;7.202;2023-05-10T16:32:27;48.70;;;43.97;;
16626;SDS011;8427;52.204;7.202;2023-05-10T16:34:55;48.70;;;43.97;;
16626;SDS011;8427;52.204;7.202;2023-05-10T16:37:24;49.63;;;44.70;;
16626;SDS011;8427;52.204;7.202;2023-05-10T16:39:52;49.10;;;44.33;;
16626;SDS011;8427;52.204;7.202;2023-05-10T16:42:20;49.13;;;44.40;;
16626;SDS011;8427;52.204;7.202;2023-05-10T16:44:49;48.03;;;43.63;;
16626;SDS011;8427;52.204;7.202;2023-05-10T16:47:17;48.80;;;44.13;;
16626;SDS011;8427;52.204;7.202;2023-05-10T16:49:45;48.77;;;44.07;;
16626;SDS011;8427;52.204;7.202;2023-05-10T16:52:12;49.57;;;44.67;;
16626;SDS011;8427;52.204;7.202;2023-05-10T16:54:42;50.07;;;45.03;;
16626;SDS011;8427;52.204;7.202;2023-05-10T16:57:10;50.37;;;45.33;;
16626;SDS011;8427;52.204;7.202;2023-05-10T16:59:38;50.57;;;45.37;;
16626;SDS011;8427;52.204;7.202;2023-05-10T17:02:05;49.55;;;44.80;;
16626;SDS011;8427;52.204;7.202;2023-05-10T17:04:33;49.17;;;44.60;;
16626;SDS011;8427;52.204;7.202;2023-05-10T17:07:01;59.07;;;47.23;;
16626;SDS011;8427;52.204;7.202;2023-05-10T17:09:29;49.63;;;44.83;;
16626;SDS011;8427;52.204;7.202;2023-05-10T17:11:59;50.40;;;45.30;;
16626;SDS011;8427;52.204;7.202;2023-05-10T17:14:28;49.90;;;44.97;;
16626;SDS011;8427;52.204;7.202;2023-05-10T17:16:56;59.67;;;47.37;;
16626;SDS011;8427;52.204;7.202;2023-05-10T17:19:24;49.30;;;44.73;;
16626;SDS011;8427;52.204;7.202;2023-05-10T17:21:52;49.93;;;45.20;;
16626;SDS011;8427;52.204;7.202;2023-05-10T17:24:20;50.83;;;45.70;;
16626;SDS011;8427;52.204;7.202;2023-05-10T17:26:48;50.43;;;45.30;;
16626;SDS011;8427;52.204;7.202;2023-05-10T17:29:17;49.57;;;44.83;;
16626;SDS011;8427;52.204;7.202;2023-05-10T17:31:45;50.77;;;45.60;;
16626;SDS011;8427;52.204;7.202;2023-05-10T17:34:13;50.83;;;45.60;;
16626;SDS011;8427;52.204;7.202;2023-05-10T17:36:41;50.73;;;45.37;;
16626;SDS011;8427;52.204;7.202;2023-05-10T17:39:09;51.77;;;46.33;;
16626;SDS011;8427;52.204;7.202;2023-05-10T17:41:37;50.50;;;45.23;;
16626;SDS011;8427;52.204;7.202;2023-05-10T17:44:05;50.10;;;45.00;;
16626;SDS011;8427;52.204;7.202;2023-05-10T17:46:34;50.20;;;45.13;;
16626;SDS011;8427;52.204;7.202;2023-05-10T17:49:03;51.10;;;45.60;;
16626;SDS011;8427;52.204;7.202;2023-05-10T17:51:30;50.07;;;44.87;;
16626;SDS011;8427;52.204;7.202;2023-05-10T17:53:58;50.90;;;45.60;;
16626;SDS011;8427;52.204;7.202;2023-05-10T17:56:26;51.37;;;45.90;;
16626;SDS011;8427;52.204;7.202;2023-05-10T17:58:54;50.90;;;45.50;;
16626;SDS011;8427;52.204;7.202;2023-05-10T18:01:22;49.30;;;44.50;;
16626;SDS011;8427;52.204;7.202;2023-05-10T18:03:52;51.30;;;45.80;;
16626;SDS011;8427;52.204;7.202;2023-05-10T18:06:20;51.10;;;45.60;;
16626;SDS011;8427;52.204;7.202;2023-05-10T18:08:48;51.00;;;45.53;;
16626;SDS011;8427;52.204;7.202;2023-05-10T18:11:16;52.50;;;45.53;;
16626;SDS011;8427;52.204;7.202;2023-05-10T18:13:44;49.27;;;44.33;;
16626;SDS011;8427;52.204;7.202;2023-05-10T18:16:12;49.20;;;44.30;;
16626;SDS011;8427;52.204;7.202;2023-05-10T18:18:40;48.93;;;43.97;;
16626;SDS011;8427;52.204;7.202;2023-05-10T18:21:09;48.93;;;44.07;;
16626;SDS011;8427;52.204;7.202;2023-05-10T18:23:37;49.33;;;44.43;;
16626;SDS011;8427;52.204;7.202;2023-05-10T18:26:06;51.10;;;45.50;;
16626;SDS011;8427;52.204;7.202;2023-05-10T18:28:35;48.40;;;43.90;;
16626;SDS011;8427;52.204;7.202;2023-05-10T18:31:03;51.13;;;45.63;;
16626;SDS011;8427;52.204;7.202;2023-05-10T18:33:31;48.33;;;43.80;;
16626;SDS011;8427;52.204;7.202;2023-05-10T18:35:58;48.20;;;43.60;;
16626;SDS011;8427;52.204;7.202;2023-05-10T18:38:28;49.47;;;44.53;;
16626;SDS011;8427;52.204;7.202;2023-05-10T18:40:56;50.33;;;45.07;;
16626;SDS011;8427;52.204;7.202;2023-05-10T18:43:24;48.83;;;44.13;;
16626;SDS011;8427;52.204;7.202;2023-05-10T18:45:52;66.13;;;47.80;;
16626;SDS011;8427;52.204;7.202;2023-05-10T18:48:20;49.70;;;44.63;;
16626;SDS011;8427;52.204;7.202;2023-05-10T18:50:48;46.67;;;42.70;;
16626;SDS011;8427;52.204;7.202;2023-05-10T18:53:16;48.20;;;43.70;;
16626;SDS011;8427;52.204;7.202;2023-05-10T18:55:45;49.77;;;44.90;;
16626;SDS011;8427;52.204;7.202;2023-05-10T18:58:22;46.97;;;42.87;;
16626;SDS011;8427;52.204;7.202;2023-05-10T19:00:50;47.87;;;43.47;;
16626;SDS011;8427;52.204;7.202;2023-05-10T19:03:18;47.47;;;43.27;;
16626;SDS011;8427;52.204;7.202;2023-05-10T19:05:46;48.77;;;44.23;;
16626;SDS011;8427;52.204;7.202;2023-05-10T19:08:15;47.00;;;43.03;;
16626;SDS011;8427;52.204;7.202;2023-05-10T19:10:43;46.97;;;42.87;;
16626;SDS011;8427;52.204;7.202;2023-05-10T19:13:12;46.80;;;42.90;;
16626;SDS011;8427;52.204;7.202;2023-05-10T19:15:41;46.47;;;42.70;;
16626;SDS011;8427;52.204;7.202;2023-05-10T19:18:09;45.90;;;42.27;;
16626;SDS011;8427;52.204;7.202;2023-05-10T19:20:37;46.60;;;42.83;;
16626;SDS011;8427;52.204;7.202;2023-05-10T19:23:07;47.40;;;43.50;;
16626;SDS011;8427;52.204;7.202;2023-05-10T19:25:35;46.13;;;42.43;;
16626;SDS011;8427;52.204;7.202;2023-05-10T19:28:04;46.53;;;42.77;;
16626;SDS011;8427;52.204;7.202;2023-05-10T19:30:34;47.23;;;43.33;;
16626;SDS011;8427;52.204;7.202;2023-05-10T19:33:03;46.17;;;42.60;;
16626;SDS011;8427;52.204;7.202;2023-05-10T19:35:31;46.57;;;42.87;;
16626;SDS011;8427;52.204;7.202;2023-05-10T19:37:59;47.93;;;43.90;;
16626;SDS011;8427;52.204;7.202;2023-05-10T19:40:27;47.43;;;43.47;;
16626;SDS011;8427;52.204;7.202;2023-05-10T19:42:55;45.60;;;42.17;;
16626;SDS011;8427;52.204;7.202;2023-05-10T19:45:23;47.17;;;43.40;;
16626;SDS011;8427;52.204;7.202;2023-05-10T19:47:52;45.63;;;42.17;;
16626;SDS011;8427;52.204;7.202;2023-05-10T19:50:20;46.03;;;42.50;;
16626;SDS011;8427;52.204;7.202;2023-05-10T19:52:48;48.47;;;44.30;;
16626;SDS011;8427;52.204;7.202;2023-05-10T19:55:24;46.30;;;42.67;;
16626;SDS011;8427;52.204;7.202;2023-05-10T19:57:53;45.73;;;42.30;;
16626;SDS011;8427;52.204;7.202;2023-05-10T20:00:21;48.17;;;44.10;;
16626;SDS011;8427;52.204;7.202;2023-05-10T20:02:53;45.13;;;41.83;;
16626;SDS011;8427;52.204;7.202;2023-05-10T20:05:21;45.23;;;41.93;;
16626;SDS011;8427;52.204;7.202;2023-05-10T20:07:50;45.07;;;41.77;;
16626;SDS011;8427;52.204;7.202;2023-05-10T20:10:18;49.67;;;45.33;;
16626;SDS011;8427;52.204;7.202;2023-05-10T20:12:47;47.63;;;43.77;;
16626;SDS011;8427;52.204;7.202;2023-05-10T20:15:17;49.57;;;45.23;;
16626;SDS011;8427;52.204;7.202;2023-05-10T20:17:46;47.47;;;43.57;;
16626;SDS011;8427;52.204;7.202;2023-05-10T20:20:17;47.43;;;43.50;;
16626;SDS011;8427;52.204;7.202;2023-05-10T20:22:46;46.60;;;43.00;;
16626;SDS011;8427;52.204;7.202;2023-05-10T20:25:15;45.80;;;42.30;;
16626;SDS011;8427;52.204;7.202;2023-05-10T20:27:43;48.07;;;44.10;;
16626;SDS011;8427;52.204;7.202;2023-05-10T20:30:11;46.60;;;42.90;;
16626;SDS011;8427;52.204;7.202;2023-05-10T20:32:40;47.13;;;43.47;;
16626;SDS011;8427;52.204;7.202;2023-05-10T20:35:09;46.43;;;42.80;;
16626;SDS011;8427;52.204;7.202;2023-05-10T20:37:38;45.47;;;42.10;;
16626;SDS011;8427;52.204;7.202;2023-05-10T20:40:07;45.40;;;42.03;;
16626;SDS011;8427;52.204;7.202;2023-05-10T20:42:36;44.60;;;41.40;;
16626;SDS011;8427;52.204;7.202;2023-05-10T20:45:04;45.63;;;42.20;;
16626;SDS011;8427;52.204;7.202;2023-05-10T20:47:33;43.63;;;40.63;;
16626;SDS011;8427;52.204;7.202;2023-05-10T20:50:02;43.80;;;40.77;;
16626;SDS011;8427;52.204;7.202;2023-05-10T20:52:30;43.83;;;40.90;;
16626;SDS011;8427;52.204;7.202;2023-05-10T20:55:00;44.20;;;41.13;;
16626;SDS011;8427;52.204;7.202;2023-05-10T20:57:27;43.67;;;40.70;;
16626;SDS011;8427;52.204;7.202;2023-05-10T20:59:56;43.73;;;40.73;;
16626;SDS011;8427;52.204;7.202;2023-05-10T21:02:23;47.43;;;43.53;;
16626;SDS011;8427;52.204;7.202;2023-05-10T21:04:52;49.53;;;45.20;;
16626;SDS011;8427;52.204;7.202;2023-05-10T21:07:23;51.37;;;46.67;;
16626;SDS011;8427;52.204;7.202;2023-05-10T21:09:51;47.50;;;43.67;;
16626;SDS011;8427;52.204;7.202;2023-05-10T21:12:20;48.17;;;44.03;;
16626;SDS011;8427;52.204;7.202;2023-05-10T21:14:48;47.70;;;43.80;;
16626;SDS011;8427;52.204;7.202;2023-05-10T21:17:16;45.93;;;42.43;;
16626;SDS011;8427;52.204;7.202;2023-05-10T21:19:45;49.10;;;44.90;;
16626;SDS011;8427;52.204;7.202;2023-05-10T21:22:13;45.13;;;41.73;;
16626;SDS011;8427;52.204;7.202;2023-05-10T21:24:42;46.70;;;42.97;;
16626;SDS011;8427;52.204;7.202;2023-05-10T21:27:10;50.93;;;46.30;;
16626;SDS011;8427;52.204;7.202;2023-05-10T21:29:39;49.33;;;45.10;;
16626;SDS011;8427;52.204;7.202;2023-05-10T21:32:07;48.83;;;44.67;;
16626;SDS011;8427;52.204;7.202;2023-05-10T21:34:35;47.57;;;43.67;;
16626;SDS011;8427;52.204;7.202;2023-05-10T21:37:03;54.57;;;49.17;;
16626;SDS011;8427;52.204;7.202;2023-05-10T21:39:31;45.70;;;42.20;;
16626;SDS011;8427;52.204;7.202;2023-05-10T21:41:59;47.73;;;43.80;;